sensor_id;sensor_type;location;lat;lon;timestamp;temperature;humidity
14049;DHT22;7099;53.922;10.728;2024-02-21T00:01:37;9.40;99.90
14049;DHT22;7099;53.922;10.728;2024-02-21T00:05:43;9.50;99.90
14049;DHT22;7099;53.922;10.728;2024-02-21T00:09:48;9.50;99.90
14049;DHT22;7099;53.922;10.728;2024-02-21T00:13:54;9.40;99.90
14049;DHT22;7099;53.922;10.728;2024-02-21T00:18:00;9.40;99.90
14049;DHT22;7099;53.922;10.728;2024-02-21T00:22:06;9.50;99.90
14049;DHT22;7099;53.922;10.728;2024-02-21T00:26:12;9.40;99.90
14049;DHT22;7099;53.922;10.728;2024-02-21T00:30:18;9.40;99.90
14049;DHT22;7099;53.922;10.728;2024-02-21T00:34:24;9.40;99.90
14049;DHT22;7099;53.922;10.728;2024-02-21T00:38:29;9.40;99.90
14049;DHT22;7099;53.922;10.728;2024-02-21T00:42:35;9.50;99.90
14049;DHT22;7099;53.922;10.728;2024-02-21T00:46:41;9.40;99.90
14049;DHT22;7099;53.922;10.728;2024-02-21T00:50:47;9.40;99.90
14049;DHT22;7099;53.922;10.728;2024-02-21T00:54:52;9.40;99.90
14049;DHT22;7099;53.922;10.728;2024-02-21T00:58:59;9.50;99.90
14049;DHT22;7099;53.922;10.728;2024-02-21T01:03:05;9.50;99.90
14049;DHT22;7099;53.922;10.728;2024-02-21T01:07:10;9.40;99.90
14049;DHT22;7099;53.922;10.728;2024-02-21T01:11:16;9.50;99.90
14049;DHT22;7099;53.922;10.728;2024-02-21T01:15:22;9.50;99.90
14049;DHT22;7099;53.922;10.728;2024-02-21T01:19:27;9.50;99.90
14049;DHT22;7099;53.922;10.728;2024-02-21T01:23:34;9.50;99.90
14049;DHT22;7099;53.922;10.728;2024-02-21T01:27:40;9.50;99.90
14049;DHT22;7099;53.922;10.728;2024-02-21T01:31:45;9.50;99.90
14049;DHT22;7099;53.922;10.728;2024-02-21T01:35:52;9.50;99.90
14049;DHT22;7099;53.922;10.728;2024-02-21T01:39:58;9.50;99.90
14049;DHT22;7099;53.922;10.728;2024-02-21T01:44:04;9.50;99.90
14049;DHT22;7099;53.922;10.728;2024-02-21T01:48:09;9.50;99.90
14049;DHT22;7099;53.922;10.728;2024-02-21T01:52:16;9.50;99.90
14049;DHT22;7099;53.922;10.728;2024-02-21T01:56:22;9.50;99.90
14049;DHT22;7099;53.922;10.728;2024-02-21T02:00:28;9.50;99.90
14049;DHT22;7099;53.922;10.728;2024-02-21T02:04:34;9.50;99.90
14049;DHT22;7099;53.922;10.728;2024-02-21T02:08:40;9.50;99.90
14049;DHT22;7099;53.922;10.728;2024-02-21T02:12:47;9.50;99.90
14049;DHT22;7099;53.922;10.728;2024-02-21T02:16:52;9.50;99.90
14049;DHT22;7099;53.922;10.728;2024-02-21T02:20:58;9.40;99.90
14049;DHT22;7099;53.922;10.728;2024-02-21T02:25:04;9.40;99.90
14049;DHT22;7099;53.922;10.728;2024-02-21T02:29:10;9.40;99.90
14049;DHT22;7099;53.922;10.728;2024-02-21T02:33:16;9.40;99.90
14049;DHT22;7099;53.922;10.728;2024-02-21T02:37:25;9.40;99.90
14049;DHT22;7099;53.922;10.728;2024-02-21T02:41:30;9.40;99.90
14049;DHT22;7099;53.922;10.728;2024-02-21T02:45:36;9.40;99.90
14049;DHT22;7099;53.922;10.728;2024-02-21T02:49:41;9.40;99.90
14049;DHT22;7099;53.922;10.728;2024-02-21T02:53:47;9.40;99.90
14049;DHT22;7099;53.922;10.728;2024-02-21T02:57:53;9.40;99.90
14049;DHT22;7099;53.922;10.728;2024-02-21T03:01:59;9.40;99.90
14049;DHT22;7099;53.922;10.728;2024-02-21T03:06:04;9.40;99.90
14049;DHT22;7099;53.922;10.728;2024-02-21T03:10:12;9.40;99.90
14049;DHT22;7099;53.922;10.728;2024-02-21T03:14:18;9.40;99.90
14049;DHT22;7099;53.922;10.728;2024-02-21T03:18:24;9.40;99.90
14049;DHT22;7099;53.922;10.728;2024-02-21T03:22:29;9.40;99.90
14049;DHT22;7099;53.922;10.728;2024-02-21T03:26:35;9.40;99.90
14049;DHT22;7099;53.922;10.728;2024-02-21T03:30:40;9.40;99.90
14049;DHT22;7099;53.922;10.728;2024-02-21T03:34:46;9.50;99.90
14049;DHT22;7099;53.922;10.728;2024-02-21T03:38:51;9.50;99.90
14049;DHT22;7099;53.922;10.728;2024-02-21T03:42:57;9.50;99.90
14049;DHT22;7099;53.922;10.728;2024-02-21T03:47:02;9.50;99.90
14049;DHT22;7099;53.922;10.728;2024-02-21T03:51:08;9.50;99.90
14049;DHT22;7099;53.922;10.728;2024-02-21T03:55:13;9.50;99.90
14049;DHT22;7099;53.922;10.728;2024-02-21T03:59:19;9.50;99.90
14049;DHT22;7099;53.922;10.728;2024-02-21T04:03:25;9.50;99.90
14049;DHT22;7099;53.922;10.728;2024-02-21T04:07:30;9.60;99.90
14049;DHT22;7099;53.922;10.728;2024-02-21T04:11:36;9.50;99.90
14049;DHT22;7099;53.922;10.728;2024-02-21T04:15:41;9.50;99.90
14049;DHT22;7099;53.922;10.728;2024-02-21T04:19:47;9.50;99.90
14049;DHT22;7099;53.922;10.728;2024-02-21T04:23:52;9.60;99.90
14049;DHT22;7099;53.922;10.728;2024-02-21T04:27:58;9.60;99.90
14049;DHT22;7099;53.922;10.728;2024-02-21T04:32:04;9.50;99.90
14049;DHT22;7099;53.922;10.728;2024-02-21T04:36:10;9.60;99.90
14049;DHT22;7099;53.922;10.728;2024-02-21T04:40:15;9.60;99.90
14049;DHT22;7099;53.922;10.728;2024-02-21T04:44:22;9.60;99.90
14049;DHT22;7099;53.922;10.728;2024-02-21T04:48:28;9.60;99.90
14049;DHT22;7099;53.922;10.728;2024-02-21T04:52:33;9.60;99.90
14049;DHT22;7099;53.922;10.728;2024-02-21T04:56:39;9.60;99.90
14049;DHT22;7099;53.922;10.728;2024-02-21T05:00:44;9.60;99.90
14049;DHT22;7099;53.922;10.728;2024-02-21T05:04:50;9.60;99.90
14049;DHT22;7099;53.922;10.728;2024-02-21T05:08:56;9.60;99.90
14049;DHT22;7099;53.922;10.728;2024-02-21T05:13:03;9.60;99.90
14049;DHT22;7099;53.922;10.728;2024-02-21T05:17:09;9.60;99.90
14049;DHT22;7099;53.922;10.728;2024-02-21T05:21:15;9.60;99.90
14049;DHT22;7099;53.922;10.728;2024-02-21T05:25:20;9.60;99.90
14049;DHT22;7099;53.922;10.728;2024-02-21T05:29:26;9.60;99.90
14049;DHT22;7099;53.922;10.728;2024-02-21T05:33:32;9.60;99.90
14049;DHT22;7099;53.922;10.728;2024-02-21T05:37:37;9.60;99.90
14049;DHT22;7099;53.922;10.728;2024-02-21T05:41:44;9.60;99.90
14049;DHT22;7099;53.922;10.728;2024-02-21T05:45:49;9.50;99.90
14049;DHT22;7099;53.922;10.728;2024-02-21T05:49:55;9.50;99.90
14049;DHT22;7099;53.922;10.728;2024-02-21T05:54:01;9.40;99.90
14049;DHT22;7099;53.922;10.728;2024-02-21T05:58:07;9.30;99.90
14049;DHT22;7099;53.922;10.728;2024-02-21T06:02:15;9.30;99.90
14049;DHT22;7099;53.922;10.728;2024-02-21T06:06:20;9.20;99.90
14049;DHT22;7099;53.922;10.728;2024-02-21T06:10:27;9.20;99.90
14049;DHT22;7099;53.922;10.728;2024-02-21T06:14:33;9.20;99.90
14049;DHT22;7099;53.922;10.728;2024-02-21T06:18:38;9.20;99.90
14049;DHT22;7099;53.922;10.728;2024-02-21T06:22:44;9.20;99.90
14049;DHT22;7099;53.922;10.728;2024-02-21T06:26:50;9.20;99.90
14049;DHT22;7099;53.922;10.728;2024-02-21T06:30:55;9.20;99.90
14049;DHT22;7099;53.922;10.728;2024-02-21T06:35:01;9.20;99.90
14049;DHT22;7099;53.922;10.728;2024-02-21T06:39:07;9.20;99.90
14049;DHT22;7099;53.922;10.728;2024-02-21T06:43:13;9.20;99.90
14049;DHT22;7099;53.922;10.728;2024-02-21T06:47:18;9.20;99.90
14049;DHT22;7099;53.922;10.728;2024-02-21T06:51:25;9.20;99.90
14049;DHT22;7099;53.922;10.728;2024-02-21T06:55:31;9.20;99.90
14049;DHT22;7099;53.922;10.728;2024-02-21T06:59:38;9.20;99.90
14049;DHT22;7099;53.922;10.728;2024-02-21T07:03:44;9.20;99.90
14049;DHT22;7099;53.922;10.728;2024-02-21T07:07:49;9.20;99.90
14049;DHT22;7099;53.922;10.728;2024-02-21T07:11:55;9.10;99.90
14049;DHT22;7099;53.922;10.728;2024-02-21T07:16:02;9.20;99.90
14049;DHT22;7099;53.922;10.728;2024-02-21T07:20:08;9.20;99.90
14049;DHT22;7099;53.922;10.728;2024-02-21T07:24:14;9.10;99.90
14049;DHT22;7099;53.922;10.728;2024-02-21T07:28:19;9.20;99.90
14049;DHT22;7099;53.922;10.728;2024-02-21T07:32:25;9.20;99.90
14049;DHT22;7099;53.922;10.728;2024-02-21T07:36:31;9.20;99.90
14049;DHT22;7099;53.922;10.728;2024-02-21T07:40:37;9.20;99.90
14049;DHT22;7099;53.922;10.728;2024-02-21T07:44:42;9.20;99.90
14049;DHT22;7099;53.922;10.728;2024-02-21T07:48:48;9.20;99.90
14049;DHT22;7099;53.922;10.728;2024-02-21T07:52:54;9.20;99.90
14049;DHT22;7099;53.922;10.728;2024-02-21T07:57:00;9.30;99.90
14049;DHT22;7099;53.922;10.728;2024-02-21T08:01:05;9.30;99.90
14049;DHT22;7099;53.922;10.728;2024-02-21T08:05:11;9.30;99.90
14049;DHT22;7099;53.922;10.728;2024-02-21T08:09:18;9.30;99.90
14049;DHT22;7099;53.922;10.728;2024-02-21T08:13:23;9.30;99.90
14049;DHT22;7099;53.922;10.728;2024-02-21T08:17:29;9.30;99.90
14049;DHT22;7099;53.922;10.728;2024-02-21T08:21:34;9.30;99.90
14049;DHT22;7099;53.922;10.728;2024-02-21T08:25:40;9.40;99.90
14049;DHT22;7099;53.922;10.728;2024-02-21T08:29:45;9.40;99.90
14049;DHT22;7099;53.922;10.728;2024-02-21T08:33:51;9.40;99.90
14049;DHT22;7099;53.922;10.728;2024-02-21T08:37:57;9.40;99.90
14049;DHT22;7099;53.922;10.728;2024-02-21T08:42:02;9.50;99.90
14049;DHT22;7099;53.922;10.728;2024-02-21T08:46:08;9.50;99.90
14049;DHT22;7099;53.922;10.728;2024-02-21T08:50:14;9.50;99.90
14049;DHT22;7099;53.922;10.728;2024-02-21T08:54:32;9.50;99.90
14049;DHT22;7099;53.922;10.728;2024-02-21T08:58:40;9.50;99.90
14049;DHT22;7099;53.922;10.728;2024-02-21T09:02:45;9.70;99.90
14049;DHT22;7099;53.922;10.728;2024-02-21T09:06:51;9.70;99.90
14049;DHT22;7099;53.922;10.728;2024-02-21T09:10:58;9.80;99.90
14049;DHT22;7099;53.922;10.728;2024-02-21T09:15:04;9.80;99.90
14049;DHT22;7099;53.922;10.728;2024-02-21T09:19:10;9.90;99.90
14049;DHT22;7099;53.922;10.728;2024-02-21T09:23:16;9.90;99.90
14049;DHT22;7099;53.922;10.728;2024-02-21T09:27:22;10.00;99.90
14049;DHT22;7099;53.922;10.728;2024-02-21T09:31:28;10.00;99.90
14049;DHT22;7099;53.922;10.728;2024-02-21T09:35:33;10.00;99.90
14049;DHT22;7099;53.922;10.728;2024-02-21T09:39:39;10.10;99.90
14049;DHT22;7099;53.922;10.728;2024-02-21T09:43:46;10.10;99.90
14049;DHT22;7099;53.922;10.728;2024-02-21T09:52:15;10.30;99.90
14049;DHT22;7099;53.922;10.728;2024-02-21T09:56:22;10.30;99.90
14049;DHT22;7099;53.922;10.728;2024-02-21T10:00:28;10.40;99.90
14049;DHT22;7099;53.922;10.728;2024-02-21T10:04:33;10.40;99.90
14049;DHT22;7099;53.922;10.728;2024-02-21T10:08:39;10.40;99.90
14049;DHT22;7099;53.922;10.728;2024-02-21T10:12:51;10.50;99.90
14049;DHT22;7099;53.922;10.728;2024-02-21T10:16:59;10.50;99.90
14049;DHT22;7099;53.922;10.728;2024-02-21T10:21:06;10.60;99.90
14049;DHT22;7099;53.922;10.728;2024-02-21T10:25:12;10.70;99.90
14049;DHT22;7099;53.922;10.728;2024-02-21T10:29:18;10.80;99.90
14049;DHT22;7099;53.922;10.728;2024-02-21T10:33:23;10.90;99.90
14049;DHT22;7099;53.922;10.728;2024-02-21T10:37:30;11.00;99.90
14049;DHT22;7099;53.922;10.728;2024-02-21T10:41:37;11.00;99.90
14049;DHT22;7099;53.922;10.728;2024-02-21T10:45:43;11.10;99.90
14049;DHT22;7099;53.922;10.728;2024-02-21T10:49:57;11.20;99.90
14049;DHT22;7099;53.922;10.728;2024-02-21T10:58:38;11.40;99.90
14049;DHT22;7099;53.922;10.728;2024-02-21T11:02:47;11.30;99.90
14049;DHT22;7099;53.922;10.728;2024-02-21T11:06:54;11.40;99.90
14049;DHT22;7099;53.922;10.728;2024-02-21T11:11:00;11.40;99.90
14049;DHT22;7099;53.922;10.728;2024-02-21T11:15:06;11.50;99.90
14049;DHT22;7099;53.922;10.728;2024-02-21T11:19:23;11.50;99.90
14049;DHT22;7099;53.922;10.728;2024-02-21T11:23:31;11.60;99.90
14049;DHT22;7099;53.922;10.728;2024-02-21T11:27:37;11.60;99.90
14049;DHT22;7099;53.922;10.728;2024-02-21T11:31:44;11.70;99.90
14049;DHT22;7099;53.922;10.728;2024-02-21T11:35:51;11.70;99.90
14049;DHT22;7099;53.922;10.728;2024-02-21T11:39:58;11.70;99.90
14049;DHT22;7099;53.922;10.728;2024-02-21T11:44:03;11.70;99.90
14049;DHT22;7099;53.922;10.728;2024-02-21T11:48:09;11.60;99.90
14049;DHT22;7099;53.922;10.728;2024-02-21T11:52:15;11.60;99.90
14049;DHT22;7099;53.922;10.728;2024-02-21T11:56:21;11.60;99.90
14049;DHT22;7099;53.922;10.728;2024-02-21T12:00:28;11.60;99.90
14049;DHT22;7099;53.922;10.728;2024-02-21T12:04:33;11.50;99.90
14049;DHT22;7099;53.922;10.728;2024-02-21T12:08:43;11.50;99.90
14049;DHT22;7099;53.922;10.728;2024-02-21T12:12:49;11.50;99.90
14049;DHT22;7099;53.922;10.728;2024-02-21T12:16:57;11.50;99.90
14049;DHT22;7099;53.922;10.728;2024-02-21T12:21:05;11.60;99.90
14049;DHT22;7099;53.922;10.728;2024-02-21T12:25:17;11.60;99.90
14049;DHT22;7099;53.922;10.728;2024-02-21T12:29:31;11.50;99.90
14049;DHT22;7099;53.922;10.728;2024-02-21T12:33:36;11.50;99.90
14049;DHT22;7099;53.922;10.728;2024-02-21T12:37:42;11.50;99.90
14049;DHT22;7099;53.922;10.728;2024-02-21T12:41:47;11.50;99.90
14049;DHT22;7099;53.922;10.728;2024-02-21T12:45:53;11.60;99.90
14049;DHT22;7099;53.922;10.728;2024-02-21T12:49:59;11.60;99.90
14049;DHT22;7099;53.922;10.728;2024-02-21T12:54:04;11.50;99.90
14049;DHT22;7099;53.922;10.728;2024-02-21T12:58:10;11.40;99.90
14049;DHT22;7099;53.922;10.728;2024-02-21T13:02:15;11.40;99.90
14049;DHT22;7099;53.922;10.728;2024-02-21T13:06:21;11.40;99.90
14049;DHT22;7099;53.922;10.728;2024-02-21T13:10:27;11.30;99.90
14049;DHT22;7099;53.922;10.728;2024-02-21T13:14:33;11.30;99.90
14049;DHT22;7099;53.922;10.728;2024-02-21T13:18:40;11.20;99.90
14049;DHT22;7099;53.922;10.728;2024-02-21T13:22:48;11.20;99.90
14049;DHT22;7099;53.922;10.728;2024-02-21T13:26:53;11.10;99.90
14049;DHT22;7099;53.922;10.728;2024-02-21T13:30:59;11.00;99.90
14049;DHT22;7099;53.922;10.728;2024-02-21T13:35:05;10.90;99.90
14049;DHT22;7099;53.922;10.728;2024-02-21T13:39:10;10.90;99.90
14049;DHT22;7099;53.922;10.728;2024-02-21T13:43:20;10.80;99.90
14049;DHT22;7099;53.922;10.728;2024-02-21T13:47:27;10.80;99.90
14049;DHT22;7099;53.922;10.728;2024-02-21T13:51:33;10.70;99.90
14049;DHT22;7099;53.922;10.728;2024-02-21T13:55:41;10.70;99.90
14049;DHT22;7099;53.922;10.728;2024-02-21T13:59:48;10.70;99.90
14049;DHT22;7099;53.922;10.728;2024-02-21T14:03:54;10.70;99.90
14049;DHT22;7099;53.922;10.728;2024-02-21T14:08:00;10.70;99.90
14049;DHT22;7099;53.922;10.728;2024-02-21T14:12:07;10.70;99.90
14049;DHT22;7099;53.922;10.728;2024-02-21T14:16:15;10.70;99.90
14049;DHT22;7099;53.922;10.728;2024-02-21T14:20:21;10.80;99.90
14049;DHT22;7099;53.922;10.728;2024-02-21T14:24:26;10.80;99.90
14049;DHT22;7099;53.922;10.728;2024-02-21T14:28:33;10.80;99.90
14049;DHT22;7099;53.922;10.728;2024-02-21T14:32:43;10.70;99.90
14049;DHT22;7099;53.922;10.728;2024-02-21T14:36:50;10.70;99.90
14049;DHT22;7099;53.922;10.728;2024-02-21T14:40:55;10.70;99.90
14049;DHT22;7099;53.922;10.728;2024-02-21T14:45:01;10.70;99.90
14049;DHT22;7099;53.922;10.728;2024-02-21T14:49:10;10.70;99.90
14049;DHT22;7099;53.922;10.728;2024-02-21T14:53:16;10.70;99.90
14049;DHT22;7099;53.922;10.728;2024-02-21T14:57:23;10.60;99.90
14049;DHT22;7099;53.922;10.728;2024-02-21T15:01:30;10.60;99.90
14049;DHT22;7099;53.922;10.728;2024-02-21T15:05:43;10.70;99.90
14049;DHT22;7099;53.922;10.728;2024-02-21T15:09:49;10.70;99.90
14049;DHT22;7099;53.922;10.728;2024-02-21T15:13:55;10.60;99.90
14049;DHT22;7099;53.922;10.728;2024-02-21T15:18:01;10.70;99.90
14049;DHT22;7099;53.922;10.728;2024-02-21T15:22:06;10.60;99.90
14049;DHT22;7099;53.922;10.728;2024-02-21T15:26:12;10.60;99.90
14049;DHT22;7099;53.922;10.728;2024-02-21T15:30:19;10.60;99.90
14049;DHT22;7099;53.922;10.728;2024-02-21T15:34:24;10.60;99.90
14049;DHT22;7099;53.922;10.728;2024-02-21T15:38:30;10.60;99.90
14049;DHT22;7099;53.922;10.728;2024-02-21T15:42:36;10.60;99.90
14049;DHT22;7099;53.922;10.728;2024-02-21T15:46:42;10.60;99.90
14049;DHT22;7099;53.922;10.728;2024-02-21T15:50:47;10.60;99.90
14049;DHT22;7099;53.922;10.728;2024-02-21T15:54:53;10.60;99.90
14049;DHT22;7099;53.922;10.728;2024-02-21T15:58:58;10.50;99.90
14049;DHT22;7099;53.922;10.728;2024-02-21T16:03:04;10.50;99.90
14049;DHT22;7099;53.922;10.728;2024-02-21T16:07:10;10.40;99.90
14049;DHT22;7099;53.922;10.728;2024-02-21T16:11:16;10.40;99.90
14049;DHT22;7099;53.922;10.728;2024-02-21T16:15:23;10.40;99.90
14049;DHT22;7099;53.922;10.728;2024-02-21T16:19:28;10.30;99.90
14049;DHT22;7099;53.922;10.728;2024-02-21T16:23:34;10.30;99.90
14049;DHT22;7099;53.922;10.728;2024-02-21T16:27:40;10.30;99.90
14049;DHT22;7099;53.922;10.728;2024-02-21T16:31:46;10.20;99.90
14049;DHT22;7099;53.922;10.728;2024-02-21T16:35:52;10.20;99.90
14049;DHT22;7099;53.922;10.728;2024-02-21T16:39:59;10.10;99.90
14049;DHT22;7099;53.922;10.728;2024-02-21T16:44:05;10.10;99.90
14049;DHT22;7099;53.922;10.728;2024-02-21T16:48:11;10.10;99.90
14049;DHT22;7099;53.922;10.728;2024-02-21T16:52:17;10.00;99.90
14049;DHT22;7099;53.922;10.728;2024-02-21T16:56:24;9.90;99.90
14049;DHT22;7099;53.922;10.728;2024-02-21T17:00:29;9.90;99.90
14049;DHT22;7099;53.922;10.728;2024-02-21T17:04:35;9.90;99.90
14049;DHT22;7099;53.922;10.728;2024-02-21T17:08:40;9.80;99.90
14049;DHT22;7099;53.922;10.728;2024-02-21T17:12:46;9.80;99.90
14049;DHT22;7099;53.922;10.728;2024-02-21T17:16:52;9.80;99.90
14049;DHT22;7099;53.922;10.728;2024-02-21T17:21:00;9.80;99.90
14049;DHT22;7099;53.922;10.728;2024-02-21T17:25:07;9.70;99.90
14049;DHT22;7099;53.922;10.728;2024-02-21T17:29:15;9.70;99.90
14049;DHT22;7099;53.922;10.728;2024-02-21T17:33:21;9.70;99.90
14049;DHT22;7099;53.922;10.728;2024-02-21T17:37:27;9.60;99.90
14049;DHT22;7099;53.922;10.728;2024-02-21T17:41:32;9.60;99.90
14049;DHT22;7099;53.922;10.728;2024-02-21T17:45:38;9.60;99.90
14049;DHT22;7099;53.922;10.728;2024-02-21T17:49:44;9.50;99.90
14049;DHT22;7099;53.922;10.728;2024-02-21T17:53:52;9.50;99.90
14049;DHT22;7099;53.922;10.728;2024-02-21T17:57:58;9.50;99.90
14049;DHT22;7099;53.922;10.728;2024-02-21T18:02:03;9.40;99.90
14049;DHT22;7099;53.922;10.728;2024-02-21T18:06:09;9.40;99.90
14049;DHT22;7099;53.922;10.728;2024-02-21T18:10:15;9.40;99.90
14049;DHT22;7099;53.922;10.728;2024-02-21T18:14:20;9.40;99.90
14049;DHT22;7099;53.922;10.728;2024-02-21T18:18:26;9.30;99.90
14049;DHT22;7099;53.922;10.728;2024-02-21T18:22:32;9.30;99.90
14049;DHT22;7099;53.922;10.728;2024-02-21T18:26:37;9.30;99.90
14049;DHT22;7099;53.922;10.728;2024-02-21T18:30:44;9.30;99.90
14049;DHT22;7099;53.922;10.728;2024-02-21T18:34:50;9.20;99.90
14049;DHT22;7099;53.922;10.728;2024-02-21T18:38:56;9.20;99.90
14049;DHT22;7099;53.922;10.728;2024-02-21T18:43:01;9.20;99.90
14049;DHT22;7099;53.922;10.728;2024-02-21T18:47:07;9.20;99.90
14049;DHT22;7099;53.922;10.728;2024-02-21T18:51:14;9.20;99.90
14049;DHT22;7099;53.922;10.728;2024-02-21T18:55:20;9.20;99.90
14049;DHT22;7099;53.922;10.728;2024-02-21T18:59:25;9.10;99.90
14049;DHT22;7099;53.922;10.728;2024-02-21T19:03:32;9.10;99.90
14049;DHT22;7099;53.922;10.728;2024-02-21T19:07:38;9.10;99.90
14049;DHT22;7099;53.922;10.728;2024-02-21T19:11:44;9.10;99.90
14049;DHT22;7099;53.922;10.728;2024-02-21T19:15:49;9.10;99.90
14049;DHT22;7099;53.922;10.728;2024-02-21T19:19:55;9.10;99.90
14049;DHT22;7099;53.922;10.728;2024-02-21T19:24:00;9.10;99.90
14049;DHT22;7099;53.922;10.728;2024-02-21T19:28:06;9.10;99.90
14049;DHT22;7099;53.922;10.728;2024-02-21T19:32:11;9.00;99.90
14049;DHT22;7099;53.922;10.728;2024-02-21T19:36:17;9.00;99.90
14049;DHT22;7099;53.922;10.728;2024-02-21T19:40:24;9.00;99.90
14049;DHT22;7099;53.922;10.728;2024-02-21T19:44:31;9.00;99.90
14049;DHT22;7099;53.922;10.728;2024-02-21T19:48:36;9.00;99.90
14049;DHT22;7099;53.922;10.728;2024-02-21T19:52:42;9.00;99.90
14049;DHT22;7099;53.922;10.728;2024-02-21T19:56:47;9.00;99.90
14049;DHT22;7099;53.922;10.728;2024-02-21T20:00:53;9.00;99.90
14049;DHT22;7099;53.922;10.728;2024-02-21T20:04:59;8.90;99.90
14049;DHT22;7099;53.922;10.728;2024-02-21T20:09:05;8.90;99.90
14049;DHT22;7099;53.922;10.728;2024-02-21T20:13:16;8.90;99.90
14049;DHT22;7099;53.922;10.728;2024-02-21T20:17:23;8.90;99.90
14049;DHT22;7099;53.922;10.728;2024-02-21T20:21:28;8.90;99.90
14049;DHT22;7099;53.922;10.728;2024-02-21T20:25:34;8.90;99.90
14049;DHT22;7099;53.922;10.728;2024-02-21T20:29:40;8.90;99.90
14049;DHT22;7099;53.922;10.728;2024-02-21T20:33:46;8.90;99.90
14049;DHT22;7099;53.922;10.728;2024-02-21T20:37:51;8.90;99.90
14049;DHT22;7099;53.922;10.728;2024-02-21T20:41:57;8.90;99.90
14049;DHT22;7099;53.922;10.728;2024-02-21T20:46:03;8.90;99.90
14049;DHT22;7099;53.922;10.728;2024-02-21T20:50:08;8.90;99.90
14049;DHT22;7099;53.922;10.728;2024-02-21T20:54:14;8.90;99.90
14049;DHT22;7099;53.922;10.728;2024-02-21T20:58:20;8.90;99.90
14049;DHT22;7099;53.922;10.728;2024-02-21T21:02:26;8.90;99.90
14049;DHT22;7099;53.922;10.728;2024-02-21T21:06:31;8.90;99.90
14049;DHT22;7099;53.922;10.728;2024-02-21T21:10:37;8.90;99.90
14049;DHT22;7099;53.922;10.728;2024-02-21T21:14:42;8.90;99.90
14049;DHT22;7099;53.922;10.728;2024-02-21T21:18:48;8.90;99.90
14049;DHT22;7099;53.922;10.728;2024-02-21T21:22:53;8.90;99.90
14049;DHT22;7099;53.922;10.728;2024-02-21T21:26:58;8.90;99.90
14049;DHT22;7099;53.922;10.728;2024-02-21T21:31:04;8.90;99.90
14049;DHT22;7099;53.922;10.728;2024-02-21T21:35:09;8.90;99.90
14049;DHT22;7099;53.922;10.728;2024-02-21T21:39:15;8.90;99.90
14049;DHT22;7099;53.922;10.728;2024-02-21T21:43:21;8.90;99.90
14049;DHT22;7099;53.922;10.728;2024-02-21T21:47:28;8.90;99.90
14049;DHT22;7099;53.922;10.728;2024-02-21T21:51:34;8.90;99.90
14049;DHT22;7099;53.922;10.728;2024-02-21T21:55:39;9.00;99.90
14049;DHT22;7099;53.922;10.728;2024-02-21T21:59:44;8.90;99.90
14049;DHT22;7099;53.922;10.728;2024-02-21T22:03:50;9.00;99.90
14049;DHT22;7099;53.922;10.728;2024-02-21T22:07:55;8.90;99.90
14049;DHT22;7099;53.922;10.728;2024-02-21T22:12:05;9.00;99.90
14049;DHT22;7099;53.922;10.728;2024-02-21T22:16:11;8.90;99.90
14049;DHT22;7099;53.922;10.728;2024-02-21T22:20:16;8.90;99.90
14049;DHT22;7099;53.922;10.728;2024-02-21T22:24:27;8.90;99.90
14049;DHT22;7099;53.922;10.728;2024-02-21T22:28:33;8.90;99.90
14049;DHT22;7099;53.922;10.728;2024-02-21T22:32:38;8.90;99.90
14049;DHT22;7099;53.922;10.728;2024-02-21T22:36:43;8.90;99.90
14049;DHT22;7099;53.922;10.728;2024-02-21T22:40:49;8.90;99.90
14049;DHT22;7099;53.922;10.728;2024-02-21T22:44:54;8.90;99.90
14049;DHT22;7099;53.922;10.728;2024-02-21T22:49:00;8.90;99.90
14049;DHT22;7099;53.922;10.728;2024-02-21T22:53:06;8.90;99.90
14049;DHT22;7099;53.922;10.728;2024-02-21T22:57:11;8.80;99.90
14049;DHT22;7099;53.922;10.728;2024-02-21T23:01:16;8.80;99.90
14049;DHT22;7099;53.922;10.728;2024-02-21T23:05:22;8.80;99.90
14049;DHT22;7099;53.922;10.728;2024-02-21T23:09:31;8.80;99.90
14049;DHT22;7099;53.922;10.728;2024-02-21T23:13:37;8.70;99.90
14049;DHT22;7099;53.922;10.728;2024-02-21T23:17:44;8.70;99.90
14049;DHT22;7099;53.922;10.728;2024-02-21T23:21:49;8.70;99.90
14049;DHT22;7099;53.922;10.728;2024-02-21T23:25:55;8.70;99.90
14049;DHT22;7099;53.922;10.728;2024-02-21T23:30:01;8.60;99.90
14049;DHT22;7099;53.922;10.728;2024-02-21T23:34:06;8.60;99.90
14049;DHT22;7099;53.922;10.728;2024-02-21T23:38:12;8.60;99.90
14049;DHT22;7099;53.922;10.728;2024-02-21T23:42:17;8.60;99.90
14049;DHT22;7099;53.922;10.728;2024-02-21T23:46:23;8.60;99.90
14049;DHT22;7099;53.922;10.728;2024-02-21T23:50:29;8.60;99.90
14049;DHT22;7099;53.922;10.728;2024-02-21T23:54:35;8.60;99.90
14049;DHT22;7099;53.922;10.728;2024-02-21T23:58:41;8.50;99.90
